createdAt,value
2022-11-05T00:01:29.757Z,8.46
2022-11-05T00:04:49.937Z,8.46
2022-11-05T00:08:11.605Z,8.50
2022-11-05T00:11:17.911Z,8.45
2022-11-05T00:14:38.455Z,8.48
2022-11-05T00:17:40.663Z,8.42
2022-11-05T00:20:42.479Z,8.44
2022-11-05T00:24:10.166Z,8.32
2022-11-05T00:27:11.853Z,8.44
2022-11-05T00:30:25.395Z,8.46
2022-11-05T00:33:27.375Z,8.41
2022-11-05T00:36:28.950Z,8.44
2022-11-05T00:39:30.578Z,8.48
2022-11-05T00:42:50.763Z,8.43
2022-11-05T00:45:52.388Z,8.40
2022-11-05T00:49:12.664Z,8.35
2022-11-05T00:52:32.958Z,8.43
2022-11-05T00:55:38.365Z,8.44
2022-11-05T00:58:40.115Z,8.35
2022-11-05T01:01:41.831Z,8.36
2022-11-05T01:04:43.715Z,8.38
2022-11-05T01:07:45.682Z,8.36
2022-11-05T01:10:51.719Z,8.40
2022-11-05T01:13:53.345Z,8.38
2022-11-05T01:16:54.915Z,8.37
2022-11-05T01:19:56.579Z,8.37
2022-11-05T01:22:58.649Z,8.35
2022-11-05T01:26:00.265Z,8.42
2022-11-05T01:29:02.143Z,8.43
2022-11-05T01:32:04.151Z,8.42
2022-11-05T01:35:08.847Z,8.42
2022-11-05T01:38:10.545Z,8.41
2022-11-05T01:41:12.359Z,8.37
2022-11-05T01:44:51.481Z,8.38
2022-11-05T01:48:12.882Z,8.40
2022-11-05T01:51:18.364Z,8.36
2022-11-05T01:54:24.891Z,8.36
2022-11-05T01:57:27.286Z,8.37
2022-11-05T02:00:29.027Z,8.31
2022-11-05T02:03:31.624Z,8.30
2022-11-05T02:06:37.126Z,8.29
2022-11-05T02:10:02.406Z,8.24
2022-11-05T02:13:04.052Z,8.29
2022-11-05T02:16:39.938Z,8.30
2022-11-05T02:20:14.719Z,8.22
2022-11-05T02:23:43.936Z,8.27
2022-11-05T02:26:57.666Z,8.30
2022-11-05T02:30:33.441Z,8.28
2022-11-05T02:33:57.053Z,8.27
2022-11-05T02:37:09.861Z,8.28
2022-11-05T02:40:34.106Z,8.20
2022-11-05T02:43:48.043Z,8.18
2022-11-05T02:47:02.878Z,8.22
2022-11-05T02:50:25.245Z,8.20
2022-11-05T02:53:51.569Z,8.19
2022-11-05T02:56:55.569Z,8.15
2022-11-05T03:00:27.837Z,8.17
2022-11-05T03:03:57.861Z,8.20
2022-11-05T03:07:20.869Z,8.19
2022-11-05T03:10:42.267Z,8.12
2022-11-05T03:14:02.709Z,8.16
2022-11-05T03:17:32.495Z,8.14
2022-11-05T03:21:06.044Z,8.22
2022-11-05T03:24:16.752Z,8.05
2022-11-05T03:27:29.848Z,7.98
2022-11-05T03:30:35.524Z,8.01
2022-11-05T03:33:39.276Z,8.01
2022-11-05T03:36:46.012Z,8.02
2022-11-05T03:39:52.145Z,7.92
2022-11-05T03:42:58.123Z,7.95
2022-11-05T03:46:05.288Z,7.90
2022-11-05T03:49:09.735Z,7.91
2022-11-05T03:52:17.421Z,7.92
2022-11-05T03:55:26.337Z,7.88
2022-11-05T03:58:29.905Z,7.87
2022-11-05T04:01:32.272Z,7.76
2022-11-05T04:04:34.323Z,7.69
2022-11-05T04:07:54.579Z,7.70
2022-11-05T04:11:15.053Z,7.69
2022-11-05T04:14:16.735Z,7.75
2022-11-05T04:17:18.366Z,7.78
2022-11-05T04:20:38.566Z,7.85
2022-11-05T04:23:58.966Z,7.84
2022-11-05T04:27:00.691Z,7.87
2022-11-05T04:30:21.855Z,7.90
2022-11-05T04:33:23.581Z,7.93
2022-11-05T04:36:25.243Z,7.91
2022-11-05T04:39:27.054Z,7.97
2022-11-05T04:42:29.358Z,8.01
2022-11-05T04:45:34.433Z,8.02
2022-11-05T04:48:37.204Z,8.08
2022-11-05T04:51:38.744Z,8.01
2022-11-05T04:54:40.381Z,8.11
2022-11-05T04:57:41.988Z,8.13
2022-11-05T05:00:43.822Z,8.16
2022-11-05T05:03:50.029Z,8.15
2022-11-05T05:06:51.651Z,8.08
2022-11-05T05:09:54.944Z,8.12
2022-11-05T05:12:56.922Z,8.10
2022-11-05T05:15:58.907Z,8.15
2022-11-05T05:19:00.588Z,8.15
2022-11-05T05:22:02.176Z,8.13
2022-11-05T05:25:04.447Z,8.14
2022-11-05T05:28:06.128Z,8.11
2022-11-05T05:31:07.800Z,8.12
2022-11-05T05:34:14.443Z,8.10
2022-11-05T05:37:16.340Z,8.13
2022-11-05T05:40:18.017Z,8.07
2022-11-05T05:43:19.705Z,8.04
2022-11-05T05:46:21.261Z,7.99
2022-11-05T05:49:22.882Z,8.01
2022-11-05T05:52:24.609Z,8.05
2022-11-05T05:55:26.300Z,7.99
2022-11-05T07:07:22.920Z,7.91
2022-11-05T07:10:24.950Z,7.94
2022-11-05T07:13:26.948Z,8.02
2022-11-05T07:16:28.750Z,7.92
2022-11-05T07:19:30.382Z,7.97
2022-11-05T07:22:32.828Z,8.02
2022-11-05T07:25:35.136Z,7.92
2022-11-05T07:28:36.784Z,7.87
2022-11-05T07:31:38.498Z,8.13
2022-11-05T07:34:40.174Z,8.06
2022-11-05T07:37:46.570Z,8.13
2022-11-05T07:40:48.483Z,8.16
2022-11-05T07:43:50.127Z,8.17
2022-11-05T07:46:51.758Z,8.05
2022-11-05T07:49:53.468Z,8.13
2022-11-05T07:53:04.653Z,8.18
2022-11-05T07:56:06.751Z,8.16
2022-11-05T07:59:09.015Z,8.27
2022-11-05T08:02:11.497Z,8.39
2022-11-05T08:05:13.273Z,8.26
2022-11-05T08:08:17.191Z,8.34
2022-11-05T08:11:19.078Z,8.39
2022-11-05T08:14:20.682Z,8.48
2022-11-05T08:17:22.461Z,8.48
2022-11-05T08:20:24.056Z,8.62
2022-11-05T08:23:27.109Z,8.60
2022-11-05T08:26:28.755Z,8.63
2022-11-05T08:29:30.576Z,8.56
2022-11-05T08:32:32.322Z,8.52
2022-11-05T08:35:36.483Z,8.56
2022-11-05T08:38:38.311Z,8.68
2022-11-05T08:41:40.657Z,8.56
2022-11-05T08:44:42.300Z,8.40
2022-11-05T08:47:43.994Z,8.35
2022-11-05T08:50:48.369Z,8.43
2022-11-05T08:53:50.071Z,8.48
2022-11-05T08:56:51.769Z,8.50
2022-11-05T08:59:53.372Z,8.59
2022-11-05T09:02:55.531Z,8.63
2022-11-05T09:05:57.113Z,8.62
2022-11-05T09:08:58.737Z,8.49
2022-11-05T09:12:15.641Z,8.52
2022-11-05T09:15:17.351Z,8.60
2022-11-05T09:18:20.380Z,8.83
2022-11-05T09:21:21.970Z,8.82
2022-11-05T09:24:23.592Z,8.85
2022-11-05T09:27:25.478Z,8.80
2022-11-05T09:30:27.207Z,8.88
2022-11-05T09:33:28.967Z,8.93
2022-11-05T09:36:30.526Z,8.78
2022-11-05T09:39:32.224Z,8.75
2022-11-05T09:42:43.167Z,8.89
2022-11-05T09:45:49.575Z,8.84
2022-11-05T09:49:04.244Z,8.83
2022-11-05T09:52:13.038Z,8.88
2022-11-05T09:55:21.334Z,8.82
2022-11-05T09:58:43.148Z,8.75
2022-11-05T10:01:45.693Z,8.72
2022-11-05T10:04:51.421Z,8.89
2022-11-05T10:08:02.298Z,8.92
2022-11-05T10:11:10.489Z,9.03
2022-11-05T10:17:51.364Z,9.45
2022-11-05T10:20:53.012Z,9.54
2022-11-05T10:23:55.101Z,9.27
2022-11-05T10:26:57.603Z,9.37
2022-11-05T10:30:00.134Z,9.44
2022-11-05T10:33:05.125Z,9.65
2022-11-05T10:36:12.447Z,9.71
2022-11-05T10:39:18.962Z,9.79
2022-11-05T10:42:23.307Z,9.98
2022-11-05T10:45:47.278Z,10.21
2022-11-05T10:48:57.973Z,10.22
2022-11-05T10:52:12.148Z,10.33
2022-11-05T10:55:20.956Z,10.41
2022-11-05T10:58:29.023Z,10.50
2022-11-05T11:01:31.672Z,10.55
2022-11-05T11:04:37.671Z,10.54
2022-11-05T11:07:40.797Z,10.06
2022-11-05T11:10:52.122Z,10.28
2022-11-05T11:13:56.824Z,10.26
2022-11-05T11:17:17.995Z,10.37
2022-11-05T11:20:31.298Z,10.57
2022-11-05T11:23:41.129Z,10.74
2022-11-05T11:26:42.712Z,10.31
2022-11-05T11:29:54.549Z,10.46
2022-11-05T11:33:06.986Z,10.52
2022-11-05T11:36:11.134Z,10.66
2022-11-05T11:39:22.188Z,10.44
2022-11-05T11:42:30.913Z,10.40
2022-11-05T11:45:46.846Z,10.67
2022-11-05T11:48:49.899Z,11.33
2022-11-05T11:51:59.706Z,11.18
2022-11-05T11:55:27.873Z,10.82
2022-11-05T11:58:52.405Z,10.75
2022-11-05T12:02:33.220Z,10.43
2022-11-05T12:05:43.692Z,10.76
2022-11-05T12:09:11.626Z,10.76
2022-11-05T12:12:15.419Z,10.75
2022-11-05T12:15:42.002Z,10.75
2022-11-05T12:18:52.510Z,10.99
2022-11-05T12:22:04.911Z,10.63
2022-11-05T12:25:12.952Z,10.88
2022-11-05T12:28:29.948Z,10.83
2022-11-05T12:32:07.965Z,10.87
2022-11-05T12:35:27.882Z,10.93
2022-11-05T12:38:44.201Z,10.67
2022-11-05T12:41:51.553Z,10.55
2022-11-05T12:45:15.731Z,10.51
2022-11-05T12:48:40.582Z,10.67
2022-11-05T12:51:56.420Z,10.54
2022-11-05T12:55:33.651Z,10.60
2022-11-05T12:58:40.230Z,10.46
2022-11-05T13:01:46.066Z,10.41
2022-11-05T13:04:56.196Z,10.39
2022-11-05T13:08:05.442Z,10.40
2022-11-05T13:11:17.069Z,10.41
2022-11-05T13:14:27.261Z,10.47
2022-11-05T13:17:34.678Z,10.46
2022-11-05T13:20:40.175Z,10.49
2022-11-05T13:23:48.790Z,10.47
2022-11-05T13:27:18.605Z,10.57
2022-11-05T13:30:26.367Z,10.69
2022-11-05T13:33:41.038Z,10.64
2022-11-05T13:37:18.642Z,10.68
2022-11-05T13:40:25.578Z,10.82
2022-11-05T13:44:02.855Z,11.08
2022-11-05T13:47:13.526Z,11.29
2022-11-05T13:50:44.143Z,11.47
2022-11-05T13:54:02.836Z,11.59
2022-11-05T13:57:34.451Z,11.48
2022-11-05T14:00:47.899Z,11.41
2022-11-05T14:03:52.385Z,11.12
2022-11-05T14:07:05.252Z,11.37
2022-11-05T14:10:42.061Z,11.17
2022-11-05T14:13:45.961Z,11.03
2022-11-05T14:16:53.734Z,10.70
2022-11-05T14:20:04.577Z,10.66
2022-11-05T14:23:23.095Z,10.56
2022-11-05T14:26:30.212Z,10.49
2022-11-05T14:29:49.574Z,10.62
2022-11-05T14:32:53.133Z,10.56
2022-11-05T14:36:20.451Z,10.54
2022-11-05T14:39:29.356Z,10.54
2022-11-05T14:42:31.307Z,10.40
2022-11-05T14:45:35.554Z,10.42
2022-11-05T14:48:42.031Z,10.29
2022-11-05T14:51:51.380Z,10.41
2022-11-05T14:54:56.354Z,10.41
2022-11-05T14:57:57.911Z,10.88
2022-11-05T15:01:01.653Z,11.14
2022-11-05T15:04:26.888Z,11.40
2022-11-05T15:07:37.579Z,11.65
2022-11-05T15:10:40.490Z,11.38
2022-11-05T15:14:06.241Z,11.26
2022-11-05T15:17:22.840Z,11.19
2022-11-05T15:20:35.840Z,11.08
2022-11-05T15:23:45.691Z,10.67
2022-11-05T15:26:56.483Z,10.50
2022-11-05T15:30:04.997Z,10.22
2022-11-05T15:33:25.123Z,10.32
2022-11-05T15:36:29.465Z,10.05
2022-11-05T15:39:32.610Z,10.06
2022-11-05T15:42:34.341Z,9.75
2022-11-05T15:45:47.092Z,9.93
2022-11-05T15:49:05.065Z,9.97
2022-11-05T15:52:09.157Z,9.85
2022-11-05T15:55:13.806Z,9.81
2022-11-05T15:58:15.744Z,9.47
2022-11-05T16:01:34.467Z,9.47
2022-11-05T16:04:36.294Z,9.29
2022-11-05T16:07:42.458Z,9.22
2022-11-05T16:10:48.854Z,9.06
2022-11-05T16:13:51.674Z,8.54
2022-11-05T16:16:53.419Z,8.29
2022-11-05T16:19:55.682Z,8.33
2022-11-05T16:23:00.312Z,8.10
2022-11-05T16:26:02.045Z,7.95
2022-11-05T16:29:10.883Z,7.87
2022-11-05T16:32:26.891Z,7.82
2022-11-05T16:35:31.936Z,7.49
2022-11-05T16:38:33.923Z,7.58
2022-11-05T16:41:42.928Z,7.42
2022-11-05T16:44:45.001Z,7.43
2022-11-05T16:47:47.416Z,7.33
2022-11-05T16:50:49.234Z,7.30
2022-11-05T16:53:51.230Z,7.17
2022-11-05T16:56:53.184Z,7.17
2022-11-05T16:59:57.010Z,7.20
2022-11-05T17:02:58.868Z,7.08
2022-11-05T17:06:00.605Z,7.05
2022-11-05T17:09:02.429Z,6.97
2022-11-05T17:12:04.657Z,7.07
2022-11-05T17:15:35.659Z,7.04
2022-11-05T17:18:38.440Z,6.78
2022-11-05T17:21:40.115Z,6.94
2022-11-05T17:24:42.154Z,6.96
2022-11-05T17:27:44.077Z,6.96
2022-11-05T17:30:52.261Z,6.92
2022-11-05T17:33:58.509Z,6.96
2022-11-05T17:37:00.346Z,6.72
2022-11-05T17:40:03.883Z,6.89
2022-11-05T17:43:06.067Z,6.87
2022-11-05T17:46:10.355Z,6.84
2022-11-05T17:49:12.132Z,6.70
2022-11-05T17:52:13.904Z,6.79
2022-11-05T17:55:18.482Z,6.80
2022-11-05T17:58:20.198Z,6.82
2022-11-05T18:01:31.495Z,6.80
2022-11-05T18:04:33.812Z,6.75
2022-11-05T18:07:35.543Z,6.75
2022-11-05T18:10:38.323Z,6.76
2022-11-05T18:13:40.359Z,6.64
2022-11-05T18:16:42.283Z,6.64
2022-11-05T18:19:43.966Z,6.94
2022-11-05T18:22:46.331Z,6.95
2022-11-05T18:25:48.053Z,7.00
2022-11-05T18:28:49.918Z,6.95
2022-11-05T18:31:51.847Z,6.98
2022-11-05T18:34:53.730Z,6.97
2022-11-05T18:37:55.429Z,6.79
2022-11-05T18:40:56.988Z,6.94
2022-11-05T18:44:04.736Z,7.10
2022-11-05T18:47:07.057Z,7.11
2022-11-05T18:50:10.628Z,7.03
2022-11-05T18:53:12.639Z,6.88
2022-11-05T18:56:16.054Z,6.94
2022-11-05T19:02:40.843Z,6.93
2022-11-05T19:05:43.042Z,6.94
2022-11-05T19:08:45.061Z,6.82
2022-11-05T19:11:46.903Z,7.02
2022-11-05T19:14:48.605Z,7.00
2022-11-05T19:17:50.287Z,6.87
2022-11-05T19:20:52.257Z,6.88
2022-11-05T19:23:56.374Z,6.78
2022-11-05T19:26:57.957Z,6.72
2022-11-05T19:29:59.590Z,6.70
2022-11-05T19:33:01.418Z,6.90
2022-11-05T19:36:07.393Z,6.80
2022-11-05T19:39:12.134Z,6.74
2022-11-05T19:42:13.787Z,6.69
2022-11-05T19:45:42.837Z,6.70
2022-11-05T19:48:37.801Z,6.64
2022-11-05T19:51:40.129Z,6.33
2022-11-05T19:54:41.967Z,6.52
2022-11-05T19:57:44.953Z,6.53
2022-11-05T20:00:46.548Z,6.56
2022-11-05T20:03:48.559Z,6.49
2022-11-05T20:06:50.358Z,6.49
2022-11-05T20:09:52.020Z,6.46
2022-11-05T20:12:53.629Z,6.28
2022-11-05T20:15:55.641Z,6.24
2022-11-05T20:18:57.718Z,6.27
2022-11-05T20:22:00.854Z,6.40
2022-11-05T20:25:02.660Z,6.33
2022-11-05T20:28:05.724Z,6.37
2022-11-05T20:31:16.065Z,6.37
2022-11-05T20:34:17.860Z,6.52
2022-11-05T20:37:19.563Z,6.62
2022-11-05T20:40:21.718Z,6.56
2022-11-05T20:43:27.565Z,6.35
2022-11-05T20:46:32.909Z,6.29
2022-11-05T20:49:34.828Z,6.21
2022-11-05T20:52:36.800Z,6.16
2022-11-05T20:55:46.628Z,6.30
2022-11-05T20:58:48.946Z,6.35
2022-11-05T21:01:51.934Z,6.43
2022-11-05T21:04:53.848Z,6.33
2022-11-05T21:07:55.642Z,6.32
2022-11-05T21:10:57.673Z,6.24
2022-11-05T21:13:59.289Z,6.31
2022-11-05T21:17:01.001Z,6.25
2022-11-05T21:20:02.663Z,6.29
2022-11-05T21:23:04.302Z,6.13
2022-11-05T21:26:07.763Z,6.21
2022-11-05T21:29:09.447Z,6.26
2022-11-05T21:32:11.733Z,6.30
2022-11-05T21:35:13.285Z,6.34
2022-11-05T21:38:17.032Z,6.39
2022-11-05T21:41:18.773Z,6.33
2022-11-05T21:44:20.554Z,6.38
2022-11-05T21:47:22.244Z,6.44
2022-11-05T21:50:42.604Z,6.51
2022-11-05T21:54:02.791Z,6.45
2022-11-05T21:57:23.207Z,6.51
2022-11-05T22:00:25.154Z,6.56
2022-11-05T22:03:26.904Z,6.42
2022-11-05T22:06:28.494Z,6.53
2022-11-05T22:09:30.258Z,6.52
2022-11-05T22:12:32.385Z,6.46
2022-11-05T22:15:33.970Z,6.44
2022-11-05T22:18:35.648Z,6.28
2022-11-05T22:21:37.284Z,6.32
2022-11-05T22:24:40.033Z,6.44
2022-11-05T22:27:42.051Z,6.51
2022-11-05T22:30:43.807Z,6.58
2022-11-05T22:33:45.611Z,6.51
2022-11-05T22:36:47.283Z,6.37
2022-11-05T22:39:48.898Z,6.31
2022-11-05T22:42:50.502Z,6.25
2022-11-05T22:45:52.138Z,6.17
2022-11-05T22:48:54.174Z,5.96
2022-11-05T22:51:55.808Z,6.15
2022-11-05T22:54:57.505Z,6.39
2022-11-05T22:57:59.116Z,6.48
2022-11-05T23:01:01.275Z,6.23
2022-11-05T23:04:03.103Z,6.12
2022-11-05T23:07:27.641Z,6.14
2022-11-05T23:10:49.116Z,6.20
2022-11-05T23:13:50.900Z,6.19
2022-11-05T23:17:11.730Z,6.29
2022-11-05T23:20:35.519Z,6.34
2022-11-05T23:23:55.476Z,6.28
2022-11-05T23:26:58.046Z,6.37
2022-11-05T23:30:07.442Z,6.42
2022-11-05T23:33:09.068Z,6.54
2022-11-05T23:36:31.555Z,6.65
2022-11-05T23:39:36.854Z,6.78
2022-11-05T23:43:01.760Z,6.85
2022-11-05T23:46:21.981Z,6.79
2022-11-05T23:49:23.667Z,6.94
2022-11-05T23:52:25.264Z,6.89
2022-11-05T23:55:27.202Z,6.82
2022-11-05T23:58:29.163Z,6.73
